Time;durP1;ratioP1;P1;durP2;ratioP2;P2;SDS_P1;SDS_P2;PMS_P1;PMS_P2;Temp;Humidity;BMP_temperature;BMP_pressure;BME280_temperature;BME280_humidity;BME280_pressure;Samples;Min_cycle;Max_cycle;Signal;HPM_P1;HPM_P2
2021/09/03 00:00:37;;;;;;;3.97;3.78;;;;;;;16.11;53.38;101316.06;6265374;28;20540;-73
2021/09/03 00:03:42;;;;;;;3.45;3.25;;;;;;;16.14;55.31;101306.50;6265780;28;20191;-74
2021/09/03 00:06:47;;;;;;;4.85;3.80;;;;;;;16.06;54.79;101304.94;6266392;28;20185;-73
2021/09/03 00:09:51;;;;;;;3.97;3.22;;;;;;;16.00;54.35;101305.06;6266307;28;20276;-74
2021/09/03 00:12:55;;;;;;;3.47;3.30;;;;;;;15.92;54.48;101292.50;6265640;28;20185;-73
2021/09/03 00:15:59;;;;;;;3.50;3.15;;;;;;;15.86;54.80;101296.25;6266186;28;20196;-73
2021/09/03 00:19:04;;;;;;;2.97;2.88;;;;;;;15.72;54.36;101307.72;6266232;28;20189;-73
2021/09/03 00:22:11;;;;;;;3.28;3.15;;;;;;;15.71;55.89;101303.31;6266044;28;20222;-74
2021/09/03 00:25:16;;;;;;;4.38;3.15;;;;;;;15.64;55.42;101296.00;6266331;28;20185;-74
2021/09/03 00:28:21;;;;;;;3.45;3.15;;;;;;;15.67;55.01;101300.19;6264762;28;20519;-74
2021/09/03 00:31:26;;;;;;;3.05;2.95;;;;;;;15.61;55.00;101290.16;6265799;28;20184;-74
2021/09/03 00:34:30;;;;;;;5.22;3.47;;;;;;;15.58;54.16;101293.38;6265694;28;20259;-74
2021/09/03 00:37:35;;;;;;;3.53;3.42;;;;;;;15.64;54.19;101289.66;6264664;28;20192;-74
2021/09/03 00:40:39;;;;;;;6.28;3.50;;;;;;;15.62;53.79;101291.81;6264568;28;20252;-74
2021/09/03 00:43:45;;;;;;;3.75;3.40;;;;;;;15.52;53.06;101297.91;6264584;28;20523;-73
2021/09/03 00:46:49;;;;;;;2.97;2.88;;;;;;;15.48;53.37;101291.22;6265761;28;20185;-74
2021/09/03 00:49:55;;;;;;;2.95;2.80;;;;;;;15.45;53.69;101288.06;6265721;28;20307;-74
2021/09/03 00:53:05;;;;;;;3.08;2.70;;;;;;;15.43;53.29;101288.28;6265683;28;20223;-73
2021/09/03 00:56:09;;;;;;;2.83;2.72;;;;;;;15.48;53.46;101295.88;6264491;28;20185;-74
2021/09/03 00:59:13;;;;;;;4.80;2.60;;;;;;;15.38;53.76;101290.09;6265483;28;20258;-74
2021/09/03 01:02:33;;;;;;;3.05;2.95;;;;;;;15.31;54.18;101275.63;6264801;28;20208;-74
2021/09/03 01:06:02;;;;;;;2.78;2.58;;;;;;;15.30;53.78;101273.97;6264382;28;20439;-73
2021/09/03 01:09:33;;;;;;;3.58;2.90;;;;;;;15.28;53.89;101278.88;6263017;28;20442;-73
2021/09/03 01:13:01;;;;;;;3.08;2.90;;;;;;;15.30;54.39;101276.72;6248625;28;20518;-74
2021/09/03 01:16:24;;;;;;;2.60;2.38;;;;;;;15.25;54.33;101262.84;6263917;28;20442;-74
2021/09/03 01:19:28;;;;;;;2.70;2.60;;;;;;;15.15;56.50;101284.56;6264631;28;20193;-73
2021/09/03 01:22:34;;;;;;;2.38;2.33;;;;;;;15.13;54.81;101275.69;6264941;28;20207;-73
2021/09/03 01:25:39;;;;;;;3.13;3.03;;;;;;;15.19;56.42;101280.25;6263461;28;20456;-73
2021/09/03 01:28:47;;;;;;;3.35;3.15;;;;;;;15.15;55.08;101273.59;6264317;28;20208;-74
2021/09/03 01:31:51;;;;;;;2.90;2.80;;;;;;;15.17;55.89;101254.94;6263400;28;20421;-74
2021/09/03 01:34:55;;;;;;;2.85;2.75;;;;;;;15.05;56.48;101258.50;6264281;28;20192;-73
2021/09/03 01:38:01;;;;;;;3.10;2.90;;;;;;;14.88;55.87;101257.50;6263664;28;20192;-73
2021/09/03 01:41:07;;;;;;;3.42;3.13;;;;;;;14.91;56.01;101251.56;6263199;28;20221;-73
2021/09/03 01:44:11;;;;;;;3.08;2.92;;;;;;;14.89;56.60;101245.44;6264407;28;20248;-73
2021/09/03 01:47:15;;;;;;;2.90;2.80;;;;;;;14.88;56.88;101241.03;6263015;28;20503;-73
2021/09/03 01:50:19;;;;;;;4.03;2.85;;;;;;;14.81;57.39;101245.78;6262911;28;20213;-74
2021/09/03 01:53:25;;;;;;;2.70;2.60;;;;;;;14.69;57.40;101246.84;6262773;28;20206;-74
2021/09/03 01:56:29;;;;;;;3.75;2.60;;;;;;;14.69;57.49;101252.31;6263876;28;20248;-73
2021/09/03 01:59:33;;;;;;;3.28;3.00;;;;;;;14.67;57.50;101244.31;6262814;28;20476;-73
2021/09/03 02:02:37;;;;;;;2.97;2.78;;;;;;;14.64;57.86;101244.75;6263915;28;20200;-73
2021/09/03 02:05:42;;;;;;;2.70;2.58;;;;;;;14.68;59.09;101229.50;6262754;28;20267;-73
2021/09/03 02:08:48;;;;;;;2.47;2.38;;;;;;;14.65;57.93;101232.72;6262485;28;20404;-74
2021/09/03 02:11:53;;;;;;;2.40;2.30;;;;;;;14.60;58.43;101216.13;6263806;28;20259;-74
2021/09/03 02:14:57;;;;;;;2.90;2.80;;;;;;;14.59;58.86;101230.91;6263690;28;20193;-73
2021/09/03 02:18:01;;;;;;;3.45;2.78;;;;;;;14.53;60.08;101218.13;6263313;28;20185;-73
2021/09/03 02:21:06;;;;;;;2.70;2.60;;;;;;;14.45;58.30;101226.69;6263234;28;20189;-73
2021/09/03 02:24:21;;;;;;;3.28;2.53;;;;;;;14.29;58.89;101230.03;6263563;28;20189;-73
2021/09/03 02:27:26;;;;;;;2.50;2.40;;;;;;;14.38;58.54;101226.75;6263232;28;20185;-73
2021/09/03 02:30:30;;;;;;;2.63;2.53;;;;;;;14.32;58.89;101221.38;6262022;28;20330;-73
2021/09/03 02:33:36;;;;;;;2.75;2.60;;;;;;;14.28;59.09;101228.34;6263365;28;20252;-74
2021/09/03 02:36:42;;;;;;;2.80;2.70;;;;;;;14.38;60.56;101223.19;6262402;28;20268;-74
2021/09/03 02:39:48;;;;;;;2.78;2.67;;;;;;;14.33;59.20;101214.81;6261945;28;20315;-73
2021/09/03 02:42:55;;;;;;;3.33;2.55;;;;;;;14.33;59.90;101220.28;6263219;28;20185;-74
2021/09/03 02:45:59;;;;;;;5.53;3.30;;;;;;;14.28;60.26;101210.00;6263252;28;20216;-73
2021/09/03 02:49:06;;;;;;;2.50;2.40;;;;;;;14.16;60.55;101209.09;6261601;28;20381;-73
2021/09/03 02:52:11;;;;;;;2.42;2.33;;;;;;;14.19;60.50;101218.78;6261740;28;20367;-73
2021/09/03 02:55:27;;;;;;;2.42;2.33;;;;;;;14.22;60.31;101212.84;6261845;28;20531;-73
2021/09/03 02:58:31;;;;;;;2.65;2.55;;;;;;;14.25;60.04;101209.63;6262030;28;20191;-73
2021/09/03 03:01:35;;;;;;;2.67;2.58;;;;;;;14.18;60.51;101211.59;6261977;28;20212;-73
2021/09/03 03:04:40;;;;;;;2.88;2.78;;;;;;;14.17;60.95;101209.94;6262517;28;20231;-73
2021/09/03 03:07:44;;;;;;;2.72;2.63;;;;;;;14.17;60.46;101209.94;6262521;28;20185;-74
2021/09/03 03:10:51;;;;;;;3.13;2.35;;;;;;;14.12;59.98;101212.56;6262757;28;20244;-74
2021/09/03 03:14:02;;;;;;;2.92;2.83;;;;;;;14.07;60.67;101220.63;6262367;28;20192;-74
2021/09/03 03:17:07;;;;;;;2.78;2.67;;;;;;;14.01;60.75;101218.81;6262788;28;20185;-73
2021/09/03 03:20:15;;;;;;;2.67;2.47;;;;;;;13.97;60.75;101221.16;6261339;28;20188;-74
2021/09/03 03:23:20;;;;;;;2.75;2.55;;;;;;;13.99;60.72;101224.53;6261381;28;20185;-73
2021/09/03 03:26:25;;;;;;;3.15;2.92;;;;;;;13.99;60.27;101220.94;6262664;28;20192;-73
2021/09/03 03:29:30;;;;;;;2.97;2.78;;;;;;;14.01;60.58;101232.53;6262541;28;20223;-73
2021/09/03 03:32:34;;;;;;;3.10;2.92;;;;;;;13.98;60.52;101243.94;6262491;28;20193;-73
2021/09/03 03:35:38;;;;;;;2.60;2.50;;;;;;;13.82;60.27;101232.53;6266035;28;20375;-73
2021/09/03 03:38:42;;;;;;;3.35;3.10;;;;;;;13.98;60.28;101239.31;6267009;28;20216;-74
2021/09/03 03:41:47;;;;;;;4.75;3.15;;;;;;;13.92;60.56;101244.88;6267345;28;20255;-73
2021/09/03 03:44:52;;;;;;;3.22;3.03;;;;;;;13.98;60.37;101233.81;6265843;28;20389;-73
2021/09/03 03:47:56;;;;;;;3.20;2.95;;;;;;;13.99;60.30;101240.16;6265830;28;20185;-73
2021/09/03 03:51:00;;;;;;;4.00;3.38;;;;;;;14.01;60.38;101238.00;6266720;28;20219;-73
2021/09/03 03:54:04;;;;;;;3.20;3.00;;;;;;;14.07;60.53;101253.56;6266528;28;20223;-73
2021/09/03 03:57:11;;;;;;;8.88;2.83;;;;;;;14.18;61.16;101250.03;6266755;28;20193;-73
2021/09/03 04:00:16;;;;;;;3.65;3.05;;;;;;;14.24;60.45;101265.56;6266493;28;20195;-73
2021/09/03 04:03:21;;;;;;;3.25;3.10;;;;;;;14.06;60.32;101251.88;6266314;28;20546;-73
2021/09/03 04:06:25;;;;;;;2.78;2.65;;;;;;;13.79;60.69;101256.81;6266060;28;20282;-74
2021/09/03 04:09:32;;;;;;;3.20;3.00;;;;;;;13.97;60.75;101261.50;6265830;28;20256;-74
2021/09/03 04:12:37;;;;;;;3.67;3.30;;;;;;;13.99;60.66;101262.09;6266856;28;20209;-74
2021/09/03 04:15:43;;;;;;;3.83;3.38;;;;;;;13.95;61.07;101255.38;6265090;28;20414;-73
2021/09/03 04:18:50;;;;;;;3.08;2.88;;;;;;;14.07;60.79;101259.84;6266086;28;20188;-73
2021/09/03 04:21:55;;;;;;;3.30;3.10;;;;;;;13.98;60.89;101265.91;6264900;28;20507;-73
2021/09/03 04:24:59;;;;;;;3.45;3.20;;;;;;;14.15;61.26;101275.22;6264896;28;20184;-73
2021/09/03 04:28:05;;;;;;;3.22;3.08;;;;;;;14.01;61.75;101292.88;6266189;28;20292;-73
2021/09/03 04:31:10;;;;;;;3.30;3.10;;;;;;;14.14;61.65;101287.25;6265865;28;20223;-73
2021/09/03 04:34:14;;;;;;;3.30;3.00;;;;;;;14.04;62.17;101308.88;6265586;28;20252;-73
2021/09/03 04:37:18;;;;;;;3.05;2.90;;;;;;;13.98;62.50;101309.78;6265914;28;20192;-73
2021/09/03 04:40:23;;;;;;;2.78;2.58;;;;;;;13.81;63.08;101315.84;6264591;28;20502;-73
2021/09/03 04:43:28;;;;;;;2.20;2.17;;;;;;;13.66;62.63;101301.66;6264385;28;20208;-73
2021/09/03 04:46:32;;;;;;;1.95;1.73;;;;;;;13.65;63.10;101316.47;6264198;28;20208;-73
2021/09/03 04:49:37;;;;;;;1.73;1.73;;;;;;;13.60;63.45;101323.69;6265662;28;20192;-73
2021/09/03 04:52:43;;;;;;;2.25;1.80;;;;;;;13.64;63.14;101320.25;6265595;28;20272;-73
2021/09/03 04:55:47;;;;;;;8.18;1.67;;;;;;;13.53;63.50;101326.47;6265663;28;20192;-73
2021/09/03 04:58:53;;;;;;;3.70;1.65;;;;;;;13.72;63.55;101332.84;6265223;28;20216;-73
2021/09/03 05:01:59;;;;;;;1.50;1.50;;;;;;;13.74;63.68;101326.06;6265183;28;20200;-72
2021/09/03 05:05:10;;;;;;;2.88;1.48;;;;;;;13.59;63.99;101339.28;6264476;28;20303;-73
2021/09/03 05:08:15;;;;;;;1.23;1.23;;;;;;;13.72;64.10;101338.31;6263819;28;20412;-73
2021/09/03 05:11:19;;;;;;;1.27;1.27;;;;;;;13.78;63.38;101327.31;6264499;28;20240;-73
2021/09/03 05:14:24;;;;;;;1.05;1.05;;;;;;;13.76;64.88;101328.59;6263632;28;20382;-73
2021/09/03 05:17:28;;;;;;;1.00;1.00;;;;;;;13.54;63.69;101352.84;6264635;28;20185;-74
2021/09/03 05:20:33;;;;;;;1.75;1.13;;;;;;;13.58;63.65;101354.09;6264471;28;20255;-73
2021/09/03 05:23:37;;;;;;;0.80;0.80;;;;;;;13.47;64.03;101351.22;6263297;28;20185;-74
2021/09/03 05:26:41;;;;;;;0.70;0.70;;;;;;;13.44;63.47;101349.75;6263304;28;20278;-72
2021/09/03 05:29:47;;;;;;;1.13;1.00;;;;;;;13.55;63.33;101350.94;6264220;28;20212;-74
2021/09/03 05:32:54;;;;;;;4.60;1.00;;;;;;;13.49;63.61;101355.41;6263145;28;20275;-73
2021/09/03 05:36:00;;;;;;;1.10;1.00;;;;;;;13.49;62.78;101366.38;6263236;28;20356;-73
2021/09/03 05:39:06;;;;;;;1.10;1.10;;;;;;;13.59;62.87;101383.16;6264009;28;20191;-74
2021/09/03 05:42:14;;;;;;;1.10;0.98;;;;;;;13.48;62.47;101367.41;6263311;28;20189;-73
2021/09/03 05:45:19;;;;;;;0.80;0.80;;;;;;;13.48;62.35;101396.75;6262885;28;20243;-74
2021/09/03 05:48:23;;;;;;;1.00;1.00;;;;;;;13.53;62.40;101397.75;6262889;28;20411;-73
2021/09/03 05:51:27;;;;;;;0.90;0.90;;;;;;;13.44;63.00;101406.47;6262890;28;20401;-72
2021/09/03 05:54:32;;;;;;;0.90;0.90;;;;;;;13.44;62.65;101407.31;6262571;28;20215;-73
2021/09/03 05:57:36;;;;;;;1.60;0.82;;;;;;;13.59;61.98;101410.56;6262574;28;20247;-73
2021/09/03 06:00:41;;;;;;;1.00;1.00;;;;;;;13.68;62.05;101409.25;6263763;28;20185;-73
2021/09/03 06:03:45;;;;;;;0.98;0.98;;;;;;;13.59;62.25;101421.53;6263536;28;20252;-73
2021/09/03 06:06:50;;;;;;;1.55;0.90;;;;;;;13.47;62.36;101414.25;6262254;28;20413;-73
2021/09/03 06:09:54;;;;;;;1.48;0.95;;;;;;;13.53;61.83;101411.44;6263507;28;20296;-73
2021/09/03 06:12:58;;;;;;;0.80;0.80;;;;;;;13.60;61.76;101412.25;6262251;28;20294;-73
2021/09/03 06:16:04;;;;;;;2.15;0.77;;;;;;;13.73;60.97;101412.16;6262887;28;20248;-74
2021/09/03 06:19:08;;;;;;;0.90;0.90;;;;;;;13.69;61.13;101405.44;6261829;28;20185;-74
2021/09/03 06:22:12;;;;;;;1.08;1.08;;;;;;;13.46;61.06;101421.63;6262048;28;20463;-74
2021/09/03 06:25:17;;;;;;;1.63;0.80;;;;;;;13.46;62.17;101427.13;6262736;28;20217;-73
2021/09/03 06:28:22;;;;;;;0.90;0.90;;;;;;;13.42;62.19;101436.84;6262944;28;20191;-73
2021/09/03 06:31:27;;;;;;;0.98;0.98;;;;;;;13.33;61.93;101427.19;6262917;28;20244;-73
2021/09/03 06:34:31;;;;;;;1.30;1.02;;;;;;;13.42;61.74;101431.38;6263221;28;20185;-74
2021/09/03 06:37:36;;;;;;;0.82;0.80;;;;;;;13.41;61.66;101435.16;6263260;28;20184;-74
2021/09/03 06:40:40;;;;;;;1.80;1.50;;;;;;;13.48;61.25;101418.69;6263074;28;20185;-75
2021/09/03 06:43:46;;;;;;;0.93;0.93;;;;;;;13.49;61.03;101437.66;6263066;28;20189;-74
2021/09/03 06:46:51;;;;;;;1.05;1.05;;;;;;;13.72;60.54;101448.88;6262768;28;20253;-76
2021/09/03 06:49:56;;;;;;;2.85;0.90;;;;;;;13.74;59.90;101446.72;6262855;28;20276;-74
2021/09/03 06:53:00;;;;;;;2.40;0.75;;;;;;;13.76;59.64;101439.13;6261523;28;20396;-74
2021/09/03 06:56:05;;;;;;;0.90;0.90;;;;;;;14.03;59.64;101444.38;6262532;28;20192;-74
2021/09/03 06:59:10;;;;;;;0.90;0.90;;;;;;;13.94;59.05;101446.59;6262416;28;20252;-74
2021/09/03 07:02:16;;;;;;;1.63;1.05;;;;;;;14.06;57.82;101447.53;6262046;28;20204;-74
2021/09/03 07:05:20;;;;;;;0.90;0.90;;;;;;;14.13;58.25;101458.41;6261763;28;20443;-74
2021/09/03 07:08:24;;;;;;;0.80;0.80;;;;;;;14.15;57.22;101459.06;6264222;28;20291;-74
2021/09/03 07:11:29;;;;;;;0.73;0.73;;;;;;;13.95;56.51;101472.09;6267854;28;20184;-74
2021/09/03 07:14:35;;;;;;;1.02;1.00;;;;;;;14.06;56.93;101455.75;6266449;28;20491;-74
2021/09/03 07:17:41;;;;;;;0.80;0.80;;;;;;;13.96;56.79;101460.06;6266232;28;20433;-74
2021/09/03 07:20:45;;;;;;;3.63;1.05;;;;;;;13.78;57.53;101469.91;6267425;28;20264;-74
2021/09/03 07:23:49;;;;;;;0.70;0.70;;;;;;;13.84;57.18;101473.66;6267407;28;20188;-74
2021/09/03 07:26:53;;;;;;;0.95;0.82;;;;;;;13.70;56.91;101472.94;6266216;28;20239;-74
2021/09/03 07:29:57;;;;;;;0.80;0.80;;;;;;;13.89;56.95;101476.59;6267521;28;20228;-73
2021/09/03 07:33:05;;;;;;;0.90;0.90;;;;;;;13.69;54.89;101487.69;6265970;28;20539;-74
2021/09/03 07:36:10;;;;;;;0.63;0.63;;;;;;;13.65;55.33;101491.94;6266682;28;20185;-74
2021/09/03 07:39:18;;;;;;;0.93;0.70;;;;;;;13.60;54.99;101500.00;6267073;28;20192;-74
2021/09/03 07:42:22;;;;;;;0.80;0.80;;;;;;;13.71;55.20;101490.22;6266960;28;20196;-74
2021/09/03 07:45:26;;;;;;;3.17;0.80;;;;;;;13.56;55.43;101496.00;6266799;28;20223;-74
2021/09/03 07:48:33;;;;;;;0.90;0.90;;;;;;;13.49;55.34;101508.06;6266685;28;20191;-74
2021/09/03 07:51:38;;;;;;;0.80;0.80;;;;;;;13.57;55.82;101505.94;6267049;28;20253;-74
2021/09/03 07:54:44;;;;;;;0.90;0.90;;;;;;;13.73;55.53;101510.88;6266479;28;20240;-74
2021/09/03 07:57:48;;;;;;;1.75;0.80;;;;;;;13.77;54.37;101514.00;6266842;28;20191;-74
2021/09/03 08:00:52;;;;;;;1.90;0.80;;;;;;;13.51;54.46;101528.72;6265558;28;20441;-72
2021/09/03 08:04:01;;;;;;;1.58;0.90;;;;;;;13.59;55.12;101536.69;6266037;28;20192;-74
2021/09/03 08:07:05;;;;;;;0.70;0.70;;;;;;;13.80;55.59;101533.63;6265351;28;20414;-73
2021/09/03 08:10:10;;;;;;;2.70;0.90;;;;;;;13.82;55.10;101528.75;6265091;28;20574;-73
2021/09/03 08:13:15;;;;;;;1.25;1.10;;;;;;;13.91;55.21;101528.47;6265096;28;20212;-73
2021/09/03 08:16:19;;;;;;;0.80;0.80;;;;;;;13.92;55.92;101546.63;6266355;28;20222;-73
2021/09/03 08:19:24;;;;;;;1.00;1.00;;;;;;;13.87;55.72;101549.19;6265893;28;20191;-73
2021/09/03 08:22:29;;;;;;;0.70;0.70;;;;;;;13.70;55.61;101554.34;6266223;28;20288;-73
2021/09/03 08:25:33;;;;;;;1.63;0.90;;;;;;;13.68;55.44;101557.31;6265887;28;20248;-73
2021/09/03 08:28:37;;;;;;;0.90;0.90;;;;;;;13.63;55.08;101559.88;6265668;28;20185;-73
2021/09/03 08:31:41;;;;;;;1.00;1.00;;;;;;;13.68;55.98;101567.44;6265727;28;20270;-73
2021/09/03 08:34:47;;;;;;;0.70;0.70;;;;;;;13.55;54.54;101571.09;6265404;28;20219;-73
2021/09/03 08:37:52;;;;;;;1.20;1.10;;;;;;;13.75;54.65;101569.09;6264660;28;20185;-73
2021/09/03 08:40:57;;;;;;;0.90;0.90;;;;;;;13.56;55.08;101570.03;6265422;28;20223;-73
2021/09/03 08:44:01;;;;;;;0.80;0.80;;;;;;;13.64;53.52;101564.28;6265488;28;20195;-74
2021/09/03 08:47:06;;;;;;;0.65;0.65;;;;;;;13.70;54.27;101566.16;6265226;28;20248;-73
2021/09/03 08:50:14;;;;;;;0.80;0.80;;;;;;;13.66;54.27;101570.41;6264786;28;20192;-73
2021/09/03 08:53:21;;;;;;;6.03;0.70;;;;;;;13.71;54.19;101581.53;6265042;28;20276;-73
2021/09/03 08:56:25;;;;;;;0.77;0.77;;;;;;;13.80;54.22;101577.50;6264138;28;20544;-73
2021/09/03 08:59:29;;;;;;;0.80;0.80;;;;;;;13.78;53.89;101579.63;6264938;28;20185;-73
2021/09/03 09:02:33;;;;;;;0.70;0.70;;;;;;;13.79;53.47;101570.31;6264328;28;20200;-73
2021/09/03 09:05:51;;;;;;;0.82;0.70;;;;;;;13.74;53.08;101597.56;6262011;28;20286;-73
2021/09/03 09:08:57;;;;;;;1.08;0.90;;;;;;;13.96;53.89;101581.63;6264732;28;20185;-73
2021/09/03 09:12:03;;;;;;;4.45;1.02;;;;;;;13.95;53.41;101588.16;6264717;28;20185;-73
2021/09/03 09:15:14;;;;;;;1.10;1.10;;;;;;;13.96;53.85;101578.88;6263487;28;20561;-73
2021/09/03 09:18:32;;;;;;;1.42;0.73;;;;;;;14.03;54.38;101598.03;6263463;28;20476;-73
2021/09/03 09:21:39;;;;;;;1.85;1.10;;;;;;;14.02;54.14;101590.88;6263430;28;20492;-73
2021/09/03 09:24:47;;;;;;;0.90;0.90;;;;;;;14.08;54.42;101590.81;6264202;28;20189;-73
2021/09/03 09:27:52;;;;;;;2.45;1.10;;;;;;;14.05;54.50;101598.63;6264532;28;20193;-73
2021/09/03 09:30:57;;;;;;;1.25;1.00;;;;;;;13.98;53.51;101606.09;6263875;28;20196;-73
2021/09/03 09:34:13;;;;;;;0.90;0.90;;;;;;;14.01;53.12;101600.16;6263104;28;20453;-73
2021/09/03 09:37:19;;;;;;;0.80;0.80;;;;;;;14.04;51.97;101603.31;6264364;28;20255;-73
2021/09/03 09:40:25;;;;;;;0.80;0.80;;;;;;;14.10;51.30;101620.75;6262928;28;20510;-73
2021/09/03 09:43:32;;;;;;;1.48;1.00;;;;;;;14.16;50.83;101619.88;6264099;28;20220;-73
2021/09/03 09:46:36;;;;;;;0.80;0.80;;;;;;;14.31;50.56;101614.94;6245755;28;20200;-73
2021/09/03 09:49:41;;;;;;;0.93;0.90;;;;;;;14.14;50.20;101611.03;6263743;28;20192;-73
2021/09/03 09:52:46;;;;;;;1.10;1.10;;;;;;;14.30;50.11;101624.25;6263826;28;20231;-73
2021/09/03 09:55:53;;;;;;;1.75;1.10;;;;;;;14.38;49.98;101634.94;6263696;28;20212;-73
2021/09/03 09:59:02;;;;;;;2.08;0.85;;;;;;;14.35;50.92;101651.91;6263632;28;20248;-73
2021/09/03 10:02:07;;;;;;;3.35;1.08;;;;;;;14.20;50.70;101634.88;6263998;28;20205;-74
2021/09/03 10:05:12;;;;;;;0.70;0.70;;;;;;;14.26;50.55;101631.22;6262674;28;20529;-73
2021/09/03 10:08:17;;;;;;;1.00;1.00;;;;;;;14.33;50.84;101637.53;6263687;28;20184;-73
2021/09/03 10:11:22;;;;;;;1.50;1.05;;;;;;;14.35;50.53;101647.22;6263470;28;20239;-72
2021/09/03 10:14:28;;;;;;;5.05;1.05;;;;;;;14.39;49.71;101642.13;6262139;28;20235;-73
2021/09/03 10:17:34;;;;;;;0.85;0.80;;;;;;;14.43;49.13;101632.41;6263440;28;20255;-72
2021/09/03 10:20:39;;;;;;;1.20;1.20;;;;;;;14.45;48.73;101640.41;6263173;28;20283;-72
2021/09/03 10:23:56;;;;;;;1.10;1.10;;;;;;;14.35;48.73;101646.41;6262040;28;20211;-74
2021/09/03 10:27:01;;;;;;;4.32;1.52;;;;;;;14.34;49.52;101651.06;6263710;28;20185;-72
2021/09/03 10:30:15;;;;;;;1.02;1.00;;;;;;;14.37;49.00;101649.75;6261935;28;20373;-73
2021/09/03 10:33:22;;;;;;;1.98;0.90;;;;;;;14.44;48.55;101650.53;6262823;28;20191;-73
2021/09/03 10:36:57;;;;;;;1.08;1.08;;;;;;;14.64;47.55;101651.22;6261835;28;20296;-72
2021/09/03 10:40:09;;;;;;;0.90;0.90;;;;;;;14.68;49.36;101657.97;6263130;28;20189;-73
2021/09/03 10:43:42;;;;;;;2.50;0.93;;;;;;;14.75;47.96;101646.91;6262664;28;20185;-72
2021/09/03 10:46:49;;;;;;;0.85;0.85;;;;;;;14.93;47.18;101650.56;6262750;28;20185;-73
2021/09/03 10:50:09;;;;;;;0.88;0.88;;;;;;;14.87;46.80;101662.44;6261798;28;20501;-73
2021/09/03 10:53:36;;;;;;;0.80;0.80;;;;;;;14.89;47.47;101649.31;6262091;28;20204;-73
2021/09/03 10:56:58;;;;;;;1.50;0.85;;;;;;;14.67;46.41;101660.91;6262650;28;20196;-74
2021/09/03 11:00:31;;;;;;;1.00;1.00;;;;;;;14.51;46.91;101667.81;6261491;28;20235;-73
2021/09/03 11:03:57;;;;;;;1.00;1.00;;;;;;;14.67;48.05;101667.25;6261597;28;20196;-73
2021/09/03 11:07:16;;;;;;;1.50;1.08;;;;;;;14.78;46.63;101655.56;6262273;28;20192;-73
2021/09/03 11:10:38;;;;;;;1.75;0.80;;;;;;;14.83;47.30;101654.88;6261762;28;20178;-73
2021/09/03 11:14:06;;;;;;;0.80;0.80;;;;;;;15.02;47.06;101671.16;6261800;28;20177;-73
2021/09/03 11:17:12;;;;;;;1.20;1.20;;;;;;;14.69;46.08;101676.13;6261657;28;20189;-74
2021/09/03 11:20:16;;;;;;;0.70;0.70;;;;;;;14.75;46.31;101685.38;6261273;28;20377;-74
2021/09/03 11:23:24;;;;;;;0.63;0.63;;;;;;;14.86;45.47;101671.75;6261196;28;20376;-73
2021/09/03 11:26:30;;;;;;;0.70;0.70;;;;;;;14.85;44.90;101674.72;6262283;28;20193;-73
2021/09/03 11:29:41;;;;;;;0.80;0.80;;;;;;;14.87;44.76;101673.44;6262677;28;20185;-74
2021/09/03 11:32:47;;;;;;;0.93;0.93;;;;;;;15.02;44.90;101681.34;6262420;28;20185;-73
2021/09/03 11:36:02;;;;;;;2.53;0.90;;;;;;;15.07;44.51;101696.06;6261693;28;20324;-73
2021/09/03 11:39:18;;;;;;;1.00;1.00;;;;;;;15.38;45.55;101675.06;6261781;28;20268;-73
2021/09/03 11:42:24;;;;;;;2.03;0.70;;;;;;;15.31;44.72;101674.25;6262474;28;20207;-73
2021/09/03 11:45:50;;;;;;;0.80;0.80;;;;;;;15.02;43.64;101693.16;6261295;28;20201;-73
2021/09/03 11:49:24;;;;;;;0.80;0.80;;;;;;;15.19;44.02;101684.34;6261095;28;20201;-73
2021/09/03 11:52:44;;;;;;;1.52;0.70;;;;;;;15.12;44.17;101689.91;6261724;28;20185;-73
2021/09/03 11:55:54;;;;;;;0.80;0.80;;;;;;;15.16;45.23;101687.53;6265480;28;20213;-73
2021/09/03 11:59:05;;;;;;;1.02;1.02;;;;;;;15.21;43.87;101696.78;6265441;28;20481;-73
2021/09/03 12:02:15;;;;;;;3.10;0.90;;;;;;;15.18;44.02;101699.13;6266405;28;20497;-74
2021/09/03 12:05:20;;;;;;;1.02;0.93;;;;;;;15.17;44.18;101689.22;6265209;28;20415;-74
2021/09/03 12:08:35;;;;;;;0.88;0.88;;;;;;;15.28;43.95;101696.72;6266117;28;20185;-74
2021/09/03 12:11:40;;;;;;;3.70;1.00;;;;;;;15.39;43.55;101690.47;6265214;28;20192;-73
2021/09/03 12:14:53;;;;;;;1.38;0.77;;;;;;;15.62;45.64;101699.75;6264934;28;20418;-73
2021/09/03 12:17:58;;;;;;;0.65;0.65;;;;;;;15.47;43.68;101696.53;6264801;28;20476;-73
2021/09/03 12:21:04;;;;;;;3.70;0.80;;;;;;;15.49;44.71;101705.41;6266003;28;20259;-74
2021/09/03 12:24:12;;;;;;;1.25;0.68;;;;;;;15.39;43.71;101712.47;6265895;28;20216;-75
2021/09/03 12:27:16;;;;;;;0.75;0.75;;;;;;;15.53;44.29;101700.28;6266300;28;20195;-74
2021/09/03 12:30:21;;;;;;;1.60;0.73;;;;;;;15.42;43.61;101701.84;6265743;28;20247;-74
2021/09/03 12:33:28;;;;;;;0.70;0.70;;;;;;;15.50;42.53;101695.25;6264578;28;20196;-74
2021/09/03 12:36:34;;;;;;;1.40;0.88;;;;;;;15.50;42.69;101703.50;6264566;28;20212;-74
2021/09/03 12:39:40;;;;;;;0.80;0.80;;;;;;;15.42;43.52;101706.50;6264587;28;20189;-74
2021/09/03 12:42:44;;;;;;;0.70;0.70;;;;;;;15.47;44.65;101695.69;6265883;28;20255;-74
2021/09/03 12:45:49;;;;;;;1.55;0.70;;;;;;;15.44;44.10;101718.97;6265286;28;20259;-73
2021/09/03 12:49:18;;;;;;;2.72;0.75;;;;;;;15.37;42.31;101717.34;6265128;28;20192;-73
2021/09/03 12:52:25;;;;;;;1.00;0.90;;;;;;;15.37;42.96;101709.94;6265338;28;20185;-74
2021/09/03 12:55:31;;;;;;;0.60;0.60;;;;;;;15.52;42.80;101709.59;6264829;28;20291;-73
2021/09/03 12:58:35;;;;;;;2.33;0.80;;;;;;;15.52;41.69;101704.94;6263945;28;20419;-73
2021/09/03 13:01:42;;;;;;;0.85;0.85;;;;;;;15.57;41.34;101707.00;6265348;28;20263;-73
2021/09/03 13:04:48;;;;;;;0.70;0.70;;;;;;;15.57;43.30;101709.75;6264109;28;20358;-74
2021/09/03 13:07:52;;;;;;;0.70;0.70;;;;;;;15.48;42.35;101697.38;6262870;28;20196;-74
2021/09/03 13:10:56;;;;;;;0.80;0.80;;;;;;;15.48;42.48;101697.38;6263750;28;20207;-74
2021/09/03 13:14:01;;;;;;;0.80;0.80;;;;;;;15.36;42.42;101715.66;6264728;28;20189;-74
2021/09/03 13:17:05;;;;;;;0.80;0.80;;;;;;;15.46;42.17;101710.50;6263521;28;20511;-72
2021/09/03 13:20:23;;;;;;;0.73;0.73;;;;;;;15.51;41.96;101702.44;6264723;28;20224;-72
2021/09/03 13:23:28;;;;;;;5.93;0.90;;;;;;;15.45;41.40;101720.69;6264424;28;20184;-72
2021/09/03 13:26:59;;;;;;;1.95;1.10;;;;;;;15.36;42.50;101721.16;6263157;28;20234;-74
2021/09/03 13:30:05;;;;;;;1.35;0.95;;;;;;;15.35;43.54;101719.50;6264181;28;20254;-73
2021/09/03 13:33:15;;;;;;;0.70;0.70;;;;;;;15.40;42.53;101717.75;6264491;28;20185;-73
2021/09/03 13:36:23;;;;;;;1.20;0.70;;;;;;;15.44;44.58;101729.13;6264373;28;20240;-73
2021/09/03 13:39:53;;;;;;;1.00;1.00;;;;;;;15.57;42.63;101718.00;6262862;28;20271;-73
2021/09/03 13:42:57;;;;;;;0.75;0.75;;;;;;;15.56;42.32;101727.34;6264179;28;20185;-72
2021/09/03 13:46:01;;;;;;;0.90;0.90;;;;;;;15.36;42.51;101722.00;6263894;28;20251;-73
2021/09/03 13:49:08;;;;;;;0.93;0.93;;;;;;;15.26;43.60;101726.34;6263550;28;20189;-73
2021/09/03 13:52:14;;;;;;;0.90;0.90;;;;;;;15.26;43.35;101721.69;6263846;28;20193;-73
2021/09/03 13:55:18;;;;;;;0.90;0.90;;;;;;;15.29;42.87;101720.38;6262848;28;20251;-73
2021/09/03 13:58:22;;;;;;;1.75;0.85;;;;;;;15.33;43.13;101738.13;6262308;28;20209;-73
2021/09/03 14:01:43;;;;;;;1.95;1.00;;;;;;;15.39;43.42;101715.22;6262576;28;20268;-73
2021/09/03 14:04:48;;;;;;;1.48;0.73;;;;;;;15.34;42.27;101723.31;6262948;28;20298;-74
2021/09/03 14:07:54;;;;;;;1.30;0.80;;;;;;;15.28;42.26;101729.72;6262984;28;20267;-73
2021/09/03 14:10:58;;;;;;;0.60;0.60;;;;;;;15.14;42.49;101728.16;6263069;28;20223;-73
2021/09/03 14:14:02;;;;;;;1.10;1.10;;;;;;;15.15;41.03;101746.34;6262112;28;20395;-73
2021/09/03 14:17:28;;;;;;;1.15;1.15;;;;;;;15.23;41.86;101726.81;6261766;28;20251;-73
2021/09/03 14:20:49;;;;;;;0.90;0.90;;;;;;;15.20;41.08;101732.75;6261868;28;20201;-73
2021/09/03 14:24:14;;;;;;;0.93;0.93;;;;;;;15.35;41.86;101736.00;6261967;28;20181;-72
2021/09/03 14:27:42;;;;;;;0.90;0.90;;;;;;;15.42;41.19;101732.09;6206331;28;20208;-74
2021/09/03 14:31:04;;;;;;;1.00;1.00;;;;;;;15.40;41.75;101734.25;6261818;28;20177;-73